sensor_id;sensor_type;location;lat;lon;timestamp;P1;durP1;ratioP1;P2;durP2;ratioP2
8755;SDS011;4414;42.670;23.228;2024-03-07T00:00:27;22.50;;;12.02;;
8755;SDS011;4414;42.670;23.228;2024-03-07T00:02:53;36.55;;;17.80;;
8755;SDS011;4414;42.670;23.228;2024-03-07T00:05:19;26.67;;;14.32;;
8755;SDS011;4414;42.670;23.228;2024-03-07T00:07:47;33.03;;;16.25;;
8755;SDS011;4414;42.670;23.228;2024-03-07T00:10:13;27.55;;;14.82;;
8755;SDS011;4414;42.670;23.228;2024-03-07T00:12:40;23.85;;;12.70;;
8755;SDS011;4414;42.670;23.228;2024-03-07T00:15:09;25.15;;;14.25;;
8755;SDS011;4414;42.670;23.228;2024-03-07T00:17:36;25.95;;;14.32;;
8755;SDS011;4414;42.670;23.228;2024-03-07T00:20:03;30.10;;;14.07;;
8755;SDS011;4414;42.670;23.228;2024-03-07T00:22:30;25.83;;;13.13;;
8755;SDS011;4414;42.670;23.228;2024-03-07T00:24:56;27.38;;;13.65;;
8755;SDS011;4414;42.670;23.228;2024-03-07T00:27:22;25.65;;;12.32;;
8755;SDS011;4414;42.670;23.228;2024-03-07T00:29:48;23.30;;;12.85;;
8755;SDS011;4414;42.670;23.228;2024-03-07T00:32:20;24.35;;;13.18;;
8755;SDS011;4414;42.670;23.228;2024-03-07T00:34:47;25.15;;;13.20;;
8755;SDS011;4414;42.670;23.228;2024-03-07T00:37:13;24.88;;;12.98;;
8755;SDS011;4414;42.670;23.228;2024-03-07T00:39:39;24.67;;;12.82;;
8755;SDS011;4414;42.670;23.228;2024-03-07T00:42:05;24.45;;;13.00;;
8755;SDS011;4414;42.670;23.228;2024-03-07T00:44:31;30.10;;;15.65;;
8755;SDS011;4414;42.670;23.228;2024-03-07T00:46:56;26.75;;;13.15;;
8755;SDS011;4414;42.670;23.228;2024-03-07T00:49:22;30.33;;;13.93;;
8755;SDS011;4414;42.670;23.228;2024-03-07T00:51:48;25.92;;;12.85;;
8755;SDS011;4414;42.670;23.228;2024-03-07T00:54:13;25.08;;;12.75;;
8755;SDS011;4414;42.670;23.228;2024-03-07T00:56:39;9.70;;;5.78;;
8755;SDS011;4414;42.670;23.228;2024-03-07T00:59:04;9.27;;;5.18;;
8755;SDS011;4414;42.670;23.228;2024-03-07T01:01:30;6.97;;;4.00;;
8755;SDS011;4414;42.670;23.228;2024-03-07T01:03:58;7.13;;;4.00;;
8755;SDS011;4414;42.670;23.228;2024-03-07T01:06:25;10.68;;;5.53;;
8755;SDS011;4414;42.670;23.228;2024-03-07T01:08:50;10.10;;;3.90;;
8755;SDS011;4414;42.670;23.228;2024-03-07T01:11:16;5.95;;;3.35;;
8755;SDS011;4414;42.670;23.228;2024-03-07T01:13:42;12.88;;;6.43;;
8755;SDS011;4414;42.670;23.228;2024-03-07T01:16:08;13.32;;;7.13;;
8755;SDS011;4414;42.670;23.228;2024-03-07T01:18:34;14.65;;;6.85;;
8755;SDS011;4414;42.670;23.228;2024-03-07T01:21:00;13.50;;;6.32;;
8755;SDS011;4414;42.670;23.228;2024-03-07T01:23:26;13.82;;;7.47;;
8755;SDS011;4414;42.670;23.228;2024-03-07T01:25:54;14.55;;;6.55;;
8755;SDS011;4414;42.670;23.228;2024-03-07T01:28:21;9.05;;;3.95;;
8755;SDS011;4414;42.670;23.228;2024-03-07T01:30:47;7.32;;;3.95;;
8755;SDS011;4414;42.670;23.228;2024-03-07T01:33:13;4.38;;;2.70;;
8755;SDS011;4414;42.670;23.228;2024-03-07T01:35:39;5.13;;;2.20;;
8755;SDS011;4414;42.670;23.228;2024-03-07T01:38:04;4.15;;;2.40;;
8755;SDS011;4414;42.670;23.228;2024-03-07T01:40:30;4.50;;;2.55;;
8755;SDS011;4414;42.670;23.228;2024-03-07T01:42:55;6.10;;;3.08;;
8755;SDS011;4414;42.670;23.228;2024-03-07T01:45:21;4.50;;;2.20;;
8755;SDS011;4414;42.670;23.228;2024-03-07T01:47:47;5.10;;;2.42;;
8755;SDS011;4414;42.670;23.228;2024-03-07T01:50:12;7.00;;;2.42;;
8755;SDS011;4414;42.670;23.228;2024-03-07T01:52:40;4.13;;;2.47;;
8755;SDS011;4414;42.670;23.228;2024-03-07T01:55:07;7.47;;;4.07;;
8755;SDS011;4414;42.670;23.228;2024-03-07T01:57:35;9.20;;;4.97;;
8755;SDS011;4414;42.670;23.228;2024-03-07T02:00:04;10.63;;;5.13;;
8755;SDS011;4414;42.670;23.228;2024-03-07T02:02:31;4.70;;;2.10;;
8755;SDS011;4414;42.670;23.228;2024-03-07T02:04:58;2.58;;;1.02;;
8755;SDS011;4414;42.670;23.228;2024-03-07T02:07:24;1.58;;;0.80;;
8755;SDS011;4414;42.670;23.228;2024-03-07T02:09:49;3.67;;;1.63;;
8755;SDS011;4414;42.670;23.228;2024-03-07T02:12:15;4.30;;;1.95;;
8755;SDS011;4414;42.670;23.228;2024-03-07T02:14:41;4.20;;;1.85;;
8755;SDS011;4414;42.670;23.228;2024-03-07T02:17:06;2.45;;;1.38;;
8755;SDS011;4414;42.670;23.228;2024-03-07T02:19:32;1.13;;;0.60;;
8755;SDS011;4414;42.670;23.228;2024-03-07T02:21:58;3.83;;;0.90;;
8755;SDS011;4414;42.670;23.228;2024-03-07T02:24:24;0.88;;;0.43;;
8755;SDS011;4414;42.670;23.228;2024-03-07T02:26:50;2.30;;;1.08;;
8755;SDS011;4414;42.670;23.228;2024-03-07T02:29:17;3.28;;;0.90;;
8755;SDS011;4414;42.670;23.228;2024-03-07T02:31:47;3.47;;;1.63;;
8755;SDS011;4414;42.670;23.228;2024-03-07T02:34:12;1.65;;;1.00;;
8755;SDS011;4414;42.670;23.228;2024-03-07T02:36:38;2.17;;;1.10;;
8755;SDS011;4414;42.670;23.228;2024-03-07T02:39:06;2.45;;;1.10;;
8755;SDS011;4414;42.670;23.228;2024-03-07T02:41:37;4.55;;;2.35;;
8755;SDS011;4414;42.670;23.228;2024-03-07T03:04:42;10.60;;;5.43;;
8755;SDS011;4414;42.670;23.228;2024-03-07T03:07:08;15.48;;;8.05;;
8755;SDS011;4414;42.670;23.228;2024-03-07T03:09:34;14.20;;;5.57;;
8755;SDS011;4414;42.670;23.228;2024-03-07T03:12:10;1.75;;;1.23;;
8755;SDS011;4414;42.670;23.228;2024-03-07T03:17:55;7.47;;;3.03;;
8755;SDS011;4414;42.670;23.228;2024-03-07T03:20:24;8.18;;;4.53;;
8755;SDS011;4414;42.670;23.228;2024-03-07T03:22:53;13.95;;;7.10;;
8755;SDS011;4414;42.670;23.228;2024-03-07T03:25:20;15.85;;;8.25;;
8755;SDS011;4414;42.670;23.228;2024-03-07T03:27:47;20.60;;;9.20;;
8755;SDS011;4414;42.670;23.228;2024-03-07T03:30:15;17.77;;;9.45;;
8755;SDS011;4414;42.670;23.228;2024-03-07T03:32:47;21.10;;;9.95;;
8755;SDS011;4414;42.670;23.228;2024-03-07T03:35:15;19.52;;;10.00;;
8755;SDS011;4414;42.670;23.228;2024-03-07T03:37:47;20.70;;;9.75;;
8755;SDS011;4414;42.670;23.228;2024-03-07T03:42:41;14.93;;;8.10;;
8755;SDS011;4414;42.670;23.228;2024-03-07T03:45:08;28.55;;;12.23;;
8755;SDS011;4414;42.670;23.228;2024-03-07T03:47:39;13.43;;;7.10;;
8755;SDS011;4414;42.670;23.228;2024-03-07T03:50:05;17.13;;;7.22;;
8755;SDS011;4414;42.670;23.228;2024-03-07T03:52:38;12.25;;;6.20;;
8755;SDS011;4414;42.670;23.228;2024-03-07T03:58:34;11.20;;;5.07;;
8755;SDS011;4414;42.670;23.228;2024-03-07T04:01:00;6.07;;;3.58;;
8755;SDS011;4414;42.670;23.228;2024-03-07T04:03:25;9.38;;;5.00;;
8755;SDS011;4414;42.670;23.228;2024-03-07T04:05:51;13.48;;;6.03;;
8755;SDS011;4414;42.670;23.228;2024-03-07T05:15:28;15.88;;;6.68;;
8755;SDS011;4414;42.670;23.228;2024-03-07T05:17:54;8.43;;;5.22;;
8755;SDS011;4414;42.670;23.228;2024-03-07T05:29:33;10.18;;;5.03;;
8755;SDS011;4414;42.670;23.228;2024-03-07T05:32:19;12.07;;;6.63;;
8755;SDS011;4414;42.670;23.228;2024-03-07T05:34:47;6.63;;;4.00;;
8755;SDS011;4414;42.670;23.228;2024-03-07T05:37:17;7.93;;;3.63;;
8755;SDS011;4414;42.670;23.228;2024-03-07T05:39:57;4.85;;;2.42;;
8755;SDS011;4414;42.670;23.228;2024-03-07T05:42:28;2.35;;;1.50;;
8755;SDS011;4414;42.670;23.228;2024-03-07T05:44:56;2.53;;;1.55;;
8755;SDS011;4414;42.670;23.228;2024-03-07T05:47:23;3.88;;;1.30;;
8755;SDS011;4414;42.670;23.228;2024-03-07T05:49:51;2.25;;;1.20;;
8755;SDS011;4414;42.670;23.228;2024-03-07T05:52:26;1.88;;;1.27;;
8755;SDS011;4414;42.670;23.228;2024-03-07T05:55:17;2.72;;;1.27;;
8755;SDS011;4414;42.670;23.228;2024-03-07T05:57:47;2.92;;;1.75;;
8755;SDS011;4414;42.670;23.228;2024-03-07T06:00:12;2.65;;;1.38;;
8755;SDS011;4414;42.670;23.228;2024-03-07T06:02:40;2.25;;;1.42;;
8755;SDS011;4414;42.670;23.228;2024-03-07T06:05:05;3.08;;;1.30;;
8755;SDS011;4414;42.670;23.228;2024-03-07T06:07:37;2.42;;;1.30;;
8755;SDS011;4414;42.670;23.228;2024-03-07T06:10:04;3.05;;;1.80;;
8755;SDS011;4414;42.670;23.228;2024-03-07T06:12:31;3.58;;;1.67;;
8755;SDS011;4414;42.670;23.228;2024-03-07T06:14:56;3.33;;;1.90;;
8755;SDS011;4414;42.670;23.228;2024-03-07T06:17:22;2.63;;;1.48;;
8755;SDS011;4414;42.670;23.228;2024-03-07T06:19:48;3.25;;;1.38;;
8755;SDS011;4414;42.670;23.228;2024-03-07T06:22:13;4.18;;;2.17;;
8755;SDS011;4414;42.670;23.228;2024-03-07T06:24:39;5.40;;;3.17;;
8755;SDS011;4414;42.670;23.228;2024-03-07T06:27:05;4.22;;;2.03;;
8755;SDS011;4414;42.670;23.228;2024-03-07T06:29:40;3.88;;;2.45;;
8755;SDS011;4414;42.670;23.228;2024-03-07T06:32:06;5.88;;;1.65;;
8755;SDS011;4414;42.670;23.228;2024-03-07T06:34:31;4.28;;;2.05;;
8755;SDS011;4414;42.670;23.228;2024-03-07T06:36:58;3.08;;;2.03;;
8755;SDS011;4414;42.670;23.228;2024-03-07T06:39:23;3.65;;;2.15;;
8755;SDS011;4414;42.670;23.228;2024-03-07T06:41:50;2.75;;;2.05;;
8755;SDS011;4414;42.670;23.228;2024-03-07T06:44:15;3.33;;;1.80;;
8755;SDS011;4414;42.670;23.228;2024-03-07T06:46:42;4.45;;;2.33;;
8755;SDS011;4414;42.670;23.228;2024-03-07T06:49:08;3.35;;;2.13;;
8755;SDS011;4414;42.670;23.228;2024-03-07T06:51:35;4.00;;;2.15;;
8755;SDS011;4414;42.670;23.228;2024-03-07T06:54:00;3.97;;;2.25;;
8755;SDS011;4414;42.670;23.228;2024-03-07T06:56:26;3.92;;;2.40;;
8755;SDS011;4414;42.670;23.228;2024-03-07T06:58:51;4.90;;;1.92;;
8755;SDS011;4414;42.670;23.228;2024-03-07T07:01:17;4.70;;;2.38;;
8755;SDS011;4414;42.670;23.228;2024-03-07T07:03:43;7.30;;;4.00;;
8755;SDS011;4414;42.670;23.228;2024-03-07T07:06:09;5.57;;;2.97;;
8755;SDS011;4414;42.670;23.228;2024-03-07T07:08:35;6.20;;;3.60;;
8755;SDS011;4414;42.670;23.228;2024-03-07T07:11:01;4.43;;;2.92;;
8755;SDS011;4414;42.670;23.228;2024-03-07T07:13:28;5.03;;;3.05;;
8755;SDS011;4414;42.670;23.228;2024-03-07T07:15:54;4.68;;;2.92;;
8755;SDS011;4414;42.670;23.228;2024-03-07T07:18:20;4.88;;;2.80;;
8755;SDS011;4414;42.670;23.228;2024-03-07T07:20:46;6.07;;;2.88;;
8755;SDS011;4414;42.670;23.228;2024-03-07T07:23:12;5.15;;;3.70;;
8755;SDS011;4414;42.670;23.228;2024-03-07T07:25:38;3.35;;;2.35;;
8755;SDS011;4414;42.670;23.228;2024-03-07T07:28:04;4.30;;;2.53;;
8755;SDS011;4414;42.670;23.228;2024-03-07T07:30:30;4.90;;;2.58;;
8755;SDS011;4414;42.670;23.228;2024-03-07T07:32:55;6.10;;;2.95;;
8755;SDS011;4414;42.670;23.228;2024-03-07T07:35:23;4.40;;;2.90;;
8755;SDS011;4414;42.670;23.228;2024-03-07T07:37:50;4.47;;;2.65;;
8755;SDS011;4414;42.670;23.228;2024-03-07T07:40:20;3.58;;;2.38;;
8755;SDS011;4414;42.670;23.228;2024-03-07T07:42:48;8.60;;;3.38;;
8755;SDS011;4414;42.670;23.228;2024-03-07T07:45:16;6.57;;;3.67;;
8755;SDS011;4414;42.670;23.228;2024-03-07T07:47:44;4.45;;;3.03;;
8755;SDS011;4414;42.670;23.228;2024-03-07T07:50:10;4.47;;;3.15;;
8755;SDS011;4414;42.670;23.228;2024-03-07T07:52:43;5.03;;;2.58;;
8755;SDS011;4414;42.670;23.228;2024-03-07T07:55:11;4.13;;;2.30;;
8755;SDS011;4414;42.670;23.228;2024-03-07T07:57:43;7.38;;;2.92;;
8755;SDS011;4414;42.670;23.228;2024-03-07T08:00:12;4.10;;;2.70;;
8755;SDS011;4414;42.670;23.228;2024-03-07T08:03:00;4.78;;;3.28;;
8755;SDS011;4414;42.670;23.228;2024-03-07T08:05:28;5.85;;;3.30;;
8755;SDS011;4414;42.670;23.228;2024-03-07T08:08:01;6.18;;;2.85;;
8755;SDS011;4414;42.670;23.228;2024-03-07T08:10:38;5.43;;;3.15;;
8755;SDS011;4414;42.670;23.228;2024-03-07T08:13:08;5.95;;;3.88;;
8755;SDS011;4414;42.670;23.228;2024-03-07T08:15:43;6.70;;;3.75;;
8755;SDS011;4414;42.670;23.228;2024-03-07T08:18:09;6.80;;;3.63;;
8755;SDS011;4414;42.670;23.228;2024-03-07T08:20:34;6.18;;;3.72;;
8755;SDS011;4414;42.670;23.228;2024-03-07T08:23:00;5.78;;;3.60;;
8755;SDS011;4414;42.670;23.228;2024-03-07T08:25:27;8.07;;;4.45;;
8755;SDS011;4414;42.670;23.228;2024-03-07T08:27:54;9.20;;;4.53;;
8755;SDS011;4414;42.670;23.228;2024-03-07T08:30:21;7.10;;;4.95;;
8755;SDS011;4414;42.670;23.228;2024-03-07T08:32:54;8.68;;;4.85;;
8755;SDS011;4414;42.670;23.228;2024-03-07T08:35:20;11.32;;;4.68;;
8755;SDS011;4414;42.670;23.228;2024-03-07T08:37:47;6.93;;;4.72;;
8755;SDS011;4414;42.670;23.228;2024-03-07T08:40:24;8.63;;;5.20;;
8755;SDS011;4414;42.670;23.228;2024-03-07T08:42:56;12.05;;;6.40;;
8755;SDS011;4414;42.670;23.228;2024-03-07T08:45:22;17.17;;;7.32;;
8755;SDS011;4414;42.670;23.228;2024-03-07T08:47:48;22.73;;;8.98;;
8755;SDS011;4414;42.670;23.228;2024-03-07T08:50:15;12.50;;;7.03;;
8755;SDS011;4414;42.670;23.228;2024-03-07T08:52:43;10.13;;;5.43;;
8755;SDS011;4414;42.670;23.228;2024-03-07T08:55:09;10.63;;;5.60;;
8755;SDS011;4414;42.670;23.228;2024-03-07T08:57:38;9.50;;;5.88;;
8755;SDS011;4414;42.670;23.228;2024-03-07T09:00:04;11.20;;;6.82;;
8755;SDS011;4414;42.670;23.228;2024-03-07T09:02:40;13.05;;;7.88;;
8755;SDS011;4414;42.670;23.228;2024-03-07T09:05:07;11.18;;;6.97;;
8755;SDS011;4414;42.670;23.228;2024-03-07T09:07:35;10.48;;;6.55;;
8755;SDS011;4414;42.670;23.228;2024-03-07T09:10:01;11.10;;;6.10;;
8755;SDS011;4414;42.670;23.228;2024-03-07T09:12:26;10.20;;;5.35;;
8755;SDS011;4414;42.670;23.228;2024-03-07T09:14:52;10.10;;;6.88;;
8755;SDS011;4414;42.670;23.228;2024-03-07T09:17:18;12.63;;;7.50;;
8755;SDS011;4414;42.670;23.228;2024-03-07T09:19:45;11.65;;;7.75;;
8755;SDS011;4414;42.670;23.228;2024-03-07T09:22:11;14.50;;;7.05;;
8755;SDS011;4414;42.670;23.228;2024-03-07T09:24:36;16.23;;;7.95;;
8755;SDS011;4414;42.670;23.228;2024-03-07T09:27:03;14.30;;;9.02;;
8755;SDS011;4414;42.670;23.228;2024-03-07T09:29:29;15.07;;;8.52;;
8755;SDS011;4414;42.670;23.228;2024-03-07T09:31:55;12.35;;;8.35;;
8755;SDS011;4414;42.670;23.228;2024-03-07T09:34:22;12.02;;;7.70;;
8755;SDS011;4414;42.670;23.228;2024-03-07T09:36:58;12.52;;;7.22;;
8755;SDS011;4414;42.670;23.228;2024-03-07T09:39:24;15.65;;;8.02;;
8755;SDS011;4414;42.670;23.228;2024-03-07T09:41:49;11.38;;;6.45;;
8755;SDS011;4414;42.670;23.228;2024-03-07T09:44:16;12.25;;;8.80;;
8755;SDS011;4414;42.670;23.228;2024-03-07T09:49:18;13.88;;;9.63;;
8755;SDS011;4414;42.670;23.228;2024-03-07T09:51:47;16.92;;;9.57;;
8755;SDS011;4414;42.670;23.228;2024-03-07T09:54:20;11.45;;;7.57;;
8755;SDS011;4414;42.670;23.228;2024-03-07T09:56:50;14.25;;;8.43;;
8755;SDS011;4414;42.670;23.228;2024-03-07T10:01:55;8.90;;;6.55;;
8755;SDS011;4414;42.670;23.228;2024-03-07T10:04:37;10.10;;;6.72;;
8755;SDS011;4414;42.670;23.228;2024-03-07T10:07:08;11.00;;;6.15;;
8755;SDS011;4414;42.670;23.228;2024-03-07T10:09:37;8.77;;;5.10;;
8755;SDS011;4414;42.670;23.228;2024-03-07T10:12:05;8.88;;;6.05;;
8755;SDS011;4414;42.670;23.228;2024-03-07T10:14:34;7.13;;;5.10;;
8755;SDS011;4414;42.670;23.228;2024-03-07T10:17:00;8.98;;;4.57;;
8755;SDS011;4414;42.670;23.228;2024-03-07T10:19:25;9.30;;;6.10;;
8755;SDS011;4414;42.670;23.228;2024-03-07T10:21:53;8.95;;;5.72;;
8755;SDS011;4414;42.670;23.228;2024-03-07T10:24:24;10.90;;;6.65;;
8755;SDS011;4414;42.670;23.228;2024-03-07T10:26:50;9.35;;;6.85;;
8755;SDS011;4414;42.670;23.228;2024-03-07T10:29:16;12.80;;;6.35;;
8755;SDS011;4414;42.670;23.228;2024-03-07T10:31:43;11.13;;;5.82;;
8755;SDS011;4414;42.670;23.228;2024-03-07T10:34:11;9.95;;;6.10;;
8755;SDS011;4414;42.670;23.228;2024-03-07T10:36:37;7.60;;;5.65;;
8755;SDS011;4414;42.670;23.228;2024-03-07T10:39:02;9.60;;;5.68;;
8755;SDS011;4414;42.670;23.228;2024-03-07T10:41:49;10.85;;;6.03;;
8755;SDS011;4414;42.670;23.228;2024-03-07T10:44:24;9.10;;;5.60;;
8755;SDS011;4414;42.670;23.228;2024-03-07T10:46:54;9.52;;;5.88;;
8755;SDS011;4414;42.670;23.228;2024-03-07T10:49:21;9.50;;;5.93;;
8755;SDS011;4414;42.670;23.228;2024-03-07T10:51:53;8.85;;;5.60;;
8755;SDS011;4414;42.670;23.228;2024-03-07T10:57:30;9.75;;;5.68;;
8755;SDS011;4414;42.670;23.228;2024-03-07T11:00:06;8.35;;;4.88;;
8755;SDS011;4414;42.670;23.228;2024-03-07T11:02:49;10.15;;;5.35;;
8755;SDS011;4414;42.670;23.228;2024-03-07T11:10:37;7.20;;;5.68;;
8755;SDS011;4414;42.670;23.228;2024-03-07T11:13:03;9.60;;;6.30;;
8755;SDS011;4414;42.670;23.228;2024-03-07T11:15:31;8.35;;;5.28;;
8755;SDS011;4414;42.670;23.228;2024-03-07T11:18:04;8.48;;;6.47;;
8755;SDS011;4414;42.670;23.228;2024-03-07T11:20:37;6.97;;;5.95;;
8755;SDS011;4414;42.670;23.228;2024-03-07T11:23:45;9.57;;;5.22;;
8755;SDS011;4414;42.670;23.228;2024-03-07T11:26:09;10.82;;;4.80;;
8755;SDS011;4414;42.670;23.228;2024-03-07T11:28:36;10.50;;;5.25;;
8755;SDS011;4414;42.670;23.228;2024-03-07T11:31:12;10.85;;;5.68;;
8755;SDS011;4414;42.670;23.228;2024-03-07T11:33:39;8.00;;;5.40;;
8755;SDS011;4414;42.670;23.228;2024-03-07T11:36:09;12.15;;;5.78;;
8755;SDS011;4414;42.670;23.228;2024-03-07T11:38:37;9.65;;;6.00;;
8755;SDS011;4414;42.670;23.228;2024-03-07T11:41:03;6.97;;;5.18;;
8755;SDS011;4414;42.670;23.228;2024-03-07T11:43:37;9.38;;;4.93;;
8755;SDS011;4414;42.670;23.228;2024-03-07T11:46:03;6.80;;;3.58;;
8755;SDS011;4414;42.670;23.228;2024-03-07T11:48:38;6.18;;;3.95;;
8755;SDS011;4414;42.670;23.228;2024-03-07T11:51:06;4.22;;;3.10;;
8755;SDS011;4414;42.670;23.228;2024-03-07T11:53:36;4.85;;;2.72;;
8755;SDS011;4414;42.670;23.228;2024-03-07T11:56:03;9.15;;;2.97;;
8755;SDS011;4414;42.670;23.228;2024-03-07T11:58:37;6.22;;;2.88;;
8755;SDS011;4414;42.670;23.228;2024-03-07T12:01:05;5.93;;;3.00;;
8755;SDS011;4414;42.670;23.228;2024-03-07T12:03:35;5.47;;;2.67;;
8755;SDS011;4414;42.670;23.228;2024-03-07T12:06:01;6.22;;;2.75;;
8755;SDS011;4414;42.670;23.228;2024-03-07T12:08:27;8.20;;;2.95;;
8755;SDS011;4414;42.670;23.228;2024-03-07T12:10:53;5.75;;;2.90;;
8755;SDS011;4414;42.670;23.228;2024-03-07T12:13:21;5.25;;;3.38;;
8755;SDS011;4414;42.670;23.228;2024-03-07T12:15:47;6.38;;;3.25;;
8755;SDS011;4414;42.670;23.228;2024-03-07T12:18:16;5.15;;;3.63;;
8755;SDS011;4414;42.670;23.228;2024-03-07T12:20:42;5.53;;;3.00;;
8755;SDS011;4414;42.670;23.228;2024-03-07T12:23:15;4.75;;;3.58;;
8755;SDS011;4414;42.670;23.228;2024-03-07T12:25:44;5.78;;;3.85;;
8755;SDS011;4414;42.670;23.228;2024-03-07T12:28:14;6.40;;;3.35;;
8755;SDS011;4414;42.670;23.228;2024-03-07T12:33:11;5.63;;;3.45;;
8755;SDS011;4414;42.670;23.228;2024-03-07T12:35:39;5.45;;;3.75;;
8755;SDS011;4414;42.670;23.228;2024-03-07T12:38:07;7.55;;;3.33;;
8755;SDS011;4414;42.670;23.228;2024-03-07T12:40:36;7.50;;;3.83;;
8755;SDS011;4414;42.670;23.228;2024-03-07T12:43:02;5.70;;;2.95;;
8755;SDS011;4414;42.670;23.228;2024-03-07T12:45:42;6.50;;;3.47;;
8755;SDS011;4414;42.670;23.228;2024-03-07T12:48:08;7.85;;;3.97;;
8755;SDS011;4414;42.670;23.228;2024-03-07T12:50:39;9.30;;;3.58;;
8755;SDS011;4414;42.670;23.228;2024-03-07T12:53:05;5.25;;;3.13;;
8755;SDS011;4414;42.670;23.228;2024-03-07T12:55:37;5.20;;;3.42;;
8755;SDS011;4414;42.670;23.228;2024-03-07T12:58:11;8.35;;;3.05;;
8755;SDS011;4414;42.670;23.228;2024-03-07T13:00:40;5.95;;;2.88;;
8755;SDS011;4414;42.670;23.228;2024-03-07T13:03:09;7.18;;;3.28;;
8755;SDS011;4414;42.670;23.228;2024-03-07T13:05:35;8.80;;;3.78;;
8755;SDS011;4414;42.670;23.228;2024-03-07T13:08:05;6.75;;;3.65;;
8755;SDS011;4414;42.670;23.228;2024-03-07T13:10:40;2.10;;;1.17;;
8755;SDS011;4414;42.670;23.228;2024-03-07T13:13:07;1.40;;;0.70;;
8755;SDS011;4414;42.670;23.228;2024-03-07T13:15:36;0.40;;;0.30;;
8755;SDS011;4414;42.670;23.228;2024-03-07T13:18:04;0.85;;;0.38;;
8755;SDS011;4414;42.670;23.228;2024-03-07T13:20:32;0.75;;;0.63;;
8755;SDS011;4414;42.670;23.228;2024-03-07T13:22:58;1.42;;;0.80;;
8755;SDS011;4414;42.670;23.228;2024-03-07T13:25:37;0.90;;;0.40;;
8755;SDS011;4414;42.670;23.228;2024-03-07T13:28:13;2.20;;;0.85;;
8755;SDS011;4414;42.670;23.228;2024-03-07T13:30:57;1.73;;;0.80;;
8755;SDS011;4414;42.670;23.228;2024-03-07T13:33:45;1.10;;;0.63;;
8755;SDS011;4414;42.670;23.228;2024-03-07T13:36:28;3.63;;;0.80;;
8755;SDS011;4414;42.670;23.228;2024-03-07T13:38:54;1.35;;;0.60;;
8755;SDS011;4414;42.670;23.228;2024-03-07T13:41:21;1.90;;;0.80;;
8755;SDS011;4414;42.670;23.228;2024-03-07T13:43:50;1.75;;;0.68;;
8755;SDS011;4414;42.670;23.228;2024-03-07T13:46:16;1.92;;;0.75;;
8755;SDS011;4414;42.670;23.228;2024-03-07T13:48:43;3.70;;;1.25;;
8755;SDS011;4414;42.670;23.228;2024-03-07T13:51:09;2.42;;;1.10;;
8755;SDS011;4414;42.670;23.228;2024-03-07T13:53:35;2.05;;;1.00;;
8755;SDS011;4414;42.670;23.228;2024-03-07T13:58:44;1.50;;;1.17;;
8755;SDS011;4414;42.670;23.228;2024-03-07T14:10:04;3.17;;;1.38;;
8755;SDS011;4414;42.670;23.228;2024-03-07T14:12:48;2.13;;;1.20;;
8755;SDS011;4414;42.670;23.228;2024-03-07T14:36:05;5.60;;;2.08;;
8755;SDS011;4414;42.670;23.228;2024-03-07T14:38:53;5.10;;;2.38;;
8755;SDS011;4414;42.670;23.228;2024-03-07T14:47:51;6.80;;;3.72;;
8755;SDS011;4414;42.670;23.228;2024-03-07T14:50:19;7.93;;;4.88;;
8755;SDS011;4414;42.670;23.228;2024-03-07T14:52:46;9.20;;;5.22;;
8755;SDS011;4414;42.670;23.228;2024-03-07T14:55:13;7.50;;;4.68;;
8755;SDS011;4414;42.670;23.228;2024-03-07T14:57:39;7.25;;;4.40;;
8755;SDS011;4414;42.670;23.228;2024-03-07T15:00:10;9.52;;;5.03;;
8755;SDS011;4414;42.670;23.228;2024-03-07T15:02:47;6.70;;;4.00;;
8755;SDS011;4414;42.670;23.228;2024-03-07T15:05:14;10.07;;;5.78;;
8755;SDS011;4414;42.670;23.228;2024-03-07T15:07:42;8.60;;;4.45;;
8755;SDS011;4414;42.670;23.228;2024-03-07T15:10:10;9.05;;;5.88;;
8755;SDS011;4414;42.670;23.228;2024-03-07T15:12:47;10.05;;;4.93;;
8755;SDS011;4414;42.670;23.228;2024-03-07T15:15:16;9.02;;;5.28;;
8755;SDS011;4414;42.670;23.228;2024-03-07T15:17:44;10.45;;;5.78;;
8755;SDS011;4414;42.670;23.228;2024-03-07T15:20:10;12.15;;;6.57;;
8755;SDS011;4414;42.670;23.228;2024-03-07T15:25:14;12.10;;;7.30;;
8755;SDS011;4414;42.670;23.228;2024-03-07T15:27:42;12.82;;;6.18;;
8755;SDS011;4414;42.670;23.228;2024-03-07T15:30:09;14.23;;;7.13;;
8755;SDS011;4414;42.670;23.228;2024-03-07T15:32:39;9.27;;;5.55;;
8755;SDS011;4414;42.670;23.228;2024-03-07T15:35:06;10.23;;;5.03;;
8755;SDS011;4414;42.670;23.228;2024-03-07T15:37:36;7.22;;;4.78;;
8755;SDS011;4414;42.670;23.228;2024-03-07T15:40:08;10.52;;;6.32;;
8755;SDS011;4414;42.670;23.228;2024-03-07T15:42:40;13.90;;;7.50;;
8755;SDS011;4414;42.670;23.228;2024-03-07T15:45:07;12.07;;;6.47;;
8755;SDS011;4414;42.670;23.228;2024-03-07T15:47:41;9.40;;;6.32;;
8755;SDS011;4414;42.670;23.228;2024-03-07T15:52:46;11.18;;;5.97;;
8755;SDS011;4414;42.670;23.228;2024-03-07T15:55:16;11.65;;;6.40;;
8755;SDS011;4414;42.670;23.228;2024-03-07T15:57:46;12.65;;;6.53;;
8755;SDS011;4414;42.670;23.228;2024-03-07T16:00:18;13.55;;;6.22;;
8755;SDS011;4414;42.670;23.228;2024-03-07T16:05:33;15.82;;;6.82;;
8755;SDS011;4414;42.670;23.228;2024-03-07T16:08:00;10.52;;;6.03;;
8755;SDS011;4414;42.670;23.228;2024-03-07T16:10:32;11.15;;;6.68;;
8755;SDS011;4414;42.670;23.228;2024-03-07T16:13:00;10.95;;;6.72;;
8755;SDS011;4414;42.670;23.228;2024-03-07T16:15:27;11.77;;;6.35;;
8755;SDS011;4414;42.670;23.228;2024-03-07T16:17:53;13.23;;;6.63;;
8755;SDS011;4414;42.670;23.228;2024-03-07T16:20:24;13.27;;;7.85;;
8755;SDS011;4414;42.670;23.228;2024-03-07T16:22:50;19.35;;;9.40;;
8755;SDS011;4414;42.670;23.228;2024-03-07T16:25:17;30.60;;;12.98;;
8755;SDS011;4414;42.670;23.228;2024-03-07T16:27:45;23.02;;;11.05;;
8755;SDS011;4414;42.670;23.228;2024-03-07T16:30:12;19.75;;;11.55;;
8755;SDS011;4414;42.670;23.228;2024-03-07T16:32:42;17.58;;;10.57;;
8755;SDS011;4414;42.670;23.228;2024-03-07T16:35:12;14.43;;;7.93;;
8755;SDS011;4414;42.670;23.228;2024-03-07T16:37:41;14.80;;;8.80;;
8755;SDS011;4414;42.670;23.228;2024-03-07T16:40:09;16.23;;;8.10;;
8755;SDS011;4414;42.670;23.228;2024-03-07T16:42:36;14.25;;;8.63;;
8755;SDS011;4414;42.670;23.228;2024-03-07T16:45:10;16.58;;;9.48;;
8755;SDS011;4414;42.670;23.228;2024-03-07T16:47:38;17.50;;;9.82;;
8755;SDS011;4414;42.670;23.228;2024-03-07T16:50:05;19.00;;;10.68;;
8755;SDS011;4414;42.670;23.228;2024-03-07T16:52:33;18.98;;;9.95;;
8755;SDS011;4414;42.670;23.228;2024-03-07T16:55:00;20.58;;;11.55;;
8755;SDS011;4414;42.670;23.228;2024-03-07T16:57:26;16.15;;;10.10;;
8755;SDS011;4414;42.670;23.228;2024-03-07T16:59:51;24.13;;;12.77;;
8755;SDS011;4414;42.670;23.228;2024-03-07T17:02:17;26.58;;;11.13;;
8755;SDS011;4414;42.670;23.228;2024-03-07T17:04:44;27.63;;;14.45;;
8755;SDS011;4414;42.670;23.228;2024-03-07T17:07:10;28.38;;;14.45;;
8755;SDS011;4414;42.670;23.228;2024-03-07T17:09:36;23.75;;;15.05;;
8755;SDS011;4414;42.670;23.228;2024-03-07T17:12:02;34.92;;;17.38;;
8755;SDS011;4414;42.670;23.228;2024-03-07T17:14:32;32.25;;;16.30;;
8755;SDS011;4414;42.670;23.228;2024-03-07T17:17:00;36.90;;;20.20;;
8755;SDS011;4414;42.670;23.228;2024-03-07T17:19:25;33.25;;;16.77;;
8755;SDS011;4414;42.670;23.228;2024-03-07T17:21:51;25.08;;;16.27;;
8755;SDS011;4414;42.670;23.228;2024-03-07T17:24:16;29.42;;;15.05;;
8755;SDS011;4414;42.670;23.228;2024-03-07T17:26:42;27.95;;;15.45;;
8755;SDS011;4414;42.670;23.228;2024-03-07T17:29:08;26.48;;;12.50;;
8755;SDS011;4414;42.670;23.228;2024-03-07T17:31:34;31.88;;;13.48;;
8755;SDS011;4414;42.670;23.228;2024-03-07T17:33:59;23.50;;;11.27;;
8755;SDS011;4414;42.670;23.228;2024-03-07T17:36:26;24.23;;;12.20;;
8755;SDS011;4414;42.670;23.228;2024-03-07T17:38:57;23.75;;;10.65;;
8755;SDS011;4414;42.670;23.228;2024-03-07T17:41:26;22.90;;;10.13;;
8755;SDS011;4414;42.670;23.228;2024-03-07T17:43:51;21.85;;;11.77;;
8755;SDS011;4414;42.670;23.228;2024-03-07T17:46:17;17.27;;;10.05;;
8755;SDS011;4414;42.670;23.228;2024-03-07T17:48:44;15.13;;;9.30;;